Terminal Aerodrome Forecast
Issued by NWS North Platte, NE

Home | Current Version | Previous Version | Text Only | Print | Product List | Glossary On
Versions: 1 2 3 4 5 6 7 8 9 10 11 12 13 14 15 16
000
FTUS43 KLBF 032322
TAFLBF
TAF
KLBF 032322Z 0400/0424 11011KT P6SM SCT130 BKN200
     FM040400 14009KT P6SM BKN080 BKN200
     FM040700 VRB06KT P6SM BKN080 OVC150
     FM041000 VRB03KT P6SM BKN012
     FM041600 15006KT P6SM SCT012 BKN150
     FM042100 15006KT P6SM SCT080 BKN150 PROB30 0421/0424 3SM +TSRA
      OVC030CB=

USA.gov is the U.S. government's official web portal to all federal, state and local government web resources and services.